createdAt,value
2023-01-08T00:01:34.173Z,6.43
2023-01-08T00:04:02.624Z,6.30
2023-01-08T00:06:30.060Z,5.47
2023-01-08T00:08:57.460Z,5.13
2023-01-08T00:11:25.105Z,4.68
2023-01-08T00:13:52.491Z,5.10
2023-01-08T00:16:20.599Z,4.55
2023-01-08T00:18:48.465Z,3.00
2023-01-08T00:21:15.817Z,3.05
2023-01-08T00:23:43.220Z,2.03
2023-01-08T00:26:11.251Z,2.13
2023-01-08T00:28:39.167Z,1.90
2023-01-08T00:31:07.890Z,2.47
2023-01-08T00:33:35.877Z,2.65
2023-01-08T00:36:08.773Z,3.70
2023-01-08T00:38:36.144Z,3.28
2023-01-08T00:41:03.693Z,3.28
2023-01-08T00:43:31.106Z,4.65
2023-01-08T00:45:58.532Z,6.53
2023-01-08T00:48:26.038Z,7.07
2023-01-08T00:50:54.485Z,6.85
2023-01-08T00:53:22.368Z,7.22
2023-01-08T00:55:50.103Z,7.10
2023-01-08T00:58:17.501Z,6.18
2023-01-08T01:00:44.861Z,5.88
2023-01-08T01:03:12.240Z,5.47
2023-01-08T01:05:39.577Z,5.80
2023-01-08T01:08:07.006Z,5.32
2023-01-08T01:10:34.362Z,5.88
2023-01-08T01:13:01.728Z,5.40
2023-01-08T01:15:29.268Z,5.47
2023-01-08T01:17:56.570Z,5.50
2023-01-08T01:20:24.029Z,5.43
2023-01-08T01:22:51.457Z,5.38
2023-01-08T01:25:18.959Z,5.70
2023-01-08T01:27:46.497Z,6.10
2023-01-08T01:30:14.079Z,5.18
2023-01-08T01:32:41.508Z,5.43
2023-01-08T01:35:09.291Z,6.82
2023-01-08T01:37:36.912Z,6.05
2023-01-08T01:40:04.542Z,5.10
2023-01-08T01:42:41.055Z,5.43
2023-01-08T01:45:11.638Z,5.38
2023-01-08T01:47:41.338Z,6.03
2023-01-08T01:50:29.008Z,5.90
2023-01-08T01:53:00.239Z,5.68
2023-01-08T01:55:28.085Z,5.32
2023-01-08T01:58:07.079Z,5.32
2023-01-08T02:00:36.248Z,5.65
2023-01-08T02:03:06.311Z,5.68
2023-01-08T02:05:41.964Z,5.38
2023-01-08T02:08:12.770Z,5.65
2023-01-08T02:10:43.203Z,5.03
2023-01-08T02:13:32.569Z,4.85
2023-01-08T02:16:17.855Z,5.13
2023-01-08T02:18:49.599Z,4.30
2023-01-08T02:21:46.512Z,4.43
2023-01-08T02:24:32.647Z,3.80
2023-01-08T02:27:05.326Z,3.90
2023-01-08T02:29:33.767Z,4.85
2023-01-08T02:32:01.261Z,4.22
2023-01-08T02:34:28.735Z,5.05
2023-01-08T02:36:57.056Z,4.03
2023-01-08T02:39:24.381Z,3.88
2023-01-08T02:41:51.677Z,3.38
2023-01-08T02:44:22.723Z,4.07
2023-01-08T02:46:51.329Z,3.60
2023-01-08T02:49:20.700Z,3.42
2023-01-08T02:51:54.488Z,3.72
2023-01-08T02:54:23.916Z,4.45
2023-01-08T02:56:54.295Z,3.47
2023-01-08T02:59:22.129Z,3.55
2023-01-08T03:01:49.969Z,3.05
2023-01-08T03:04:19.653Z,3.85
2023-01-08T03:06:47.355Z,3.95
2023-01-08T03:09:15.240Z,3.75
2023-01-08T03:11:47.433Z,3.50
2023-01-08T03:14:25.937Z,2.97
2023-01-08T03:16:59.316Z,2.50
2023-01-08T03:19:29.227Z,2.85
2023-01-08T03:21:57.279Z,3.20
2023-01-08T03:24:35.044Z,2.65
2023-01-08T03:27:05.346Z,2.80
2023-01-08T03:29:32.749Z,2.17
2023-01-08T03:32:04.039Z,2.60
2023-01-08T03:34:33.299Z,2.40
2023-01-08T03:37:02.907Z,3.38
2023-01-08T03:39:32.511Z,3.58
2023-01-08T03:42:01.922Z,3.13
2023-01-08T03:44:29.428Z,3.92
2023-01-08T03:46:57.662Z,3.20
2023-01-08T03:49:27.077Z,3.25
2023-01-08T03:51:54.437Z,3.80
2023-01-08T03:54:24.455Z,4.10
2023-01-08T03:56:51.849Z,3.33
2023-01-08T03:59:19.201Z,4.15
2023-01-08T04:01:46.733Z,4.25
2023-01-08T04:04:14.225Z,3.50
2023-01-08T04:06:41.688Z,3.20
2023-01-08T04:09:09.181Z,3.35
2023-01-08T04:11:36.664Z,2.95
2023-01-08T04:14:04.340Z,3.38
2023-01-08T04:16:31.934Z,2.83
2023-01-08T04:18:59.280Z,2.97
2023-01-08T04:21:26.805Z,2.50
2023-01-08T04:23:55.122Z,2.72
2023-01-08T04:26:22.486Z,2.60
2023-01-08T04:28:51.259Z,2.53
2023-01-08T04:31:18.706Z,2.95
2023-01-08T04:33:46.355Z,3.17
2023-01-08T04:36:13.994Z,3.65
2023-01-08T04:38:41.700Z,3.60
2023-01-08T04:41:09.206Z,3.72
2023-01-08T04:43:36.757Z,2.97
2023-01-08T04:46:07.802Z,3.70
2023-01-08T04:48:35.280Z,3.72
2023-01-08T04:51:03.500Z,3.50
2023-01-08T04:53:31.402Z,3.65
2023-01-08T04:56:03.761Z,3.60
2023-01-08T04:58:31.199Z,3.45
2023-01-08T05:00:58.528Z,3.75
2023-01-08T05:03:26.072Z,2.90
2023-01-08T05:05:53.511Z,3.40
2023-01-08T05:08:20.812Z,3.33
2023-01-08T05:10:49.313Z,4.43
2023-01-08T05:13:16.739Z,4.18
2023-01-08T05:15:44.379Z,3.45
2023-01-08T05:18:11.804Z,3.22
2023-01-08T05:20:39.275Z,3.67
2023-01-08T05:23:06.660Z,3.20
2023-01-08T05:25:34.057Z,3.50
2023-01-08T05:28:01.548Z,3.40
2023-01-08T05:30:28.944Z,3.30
2023-01-08T05:32:56.325Z,3.10
2023-01-08T05:35:23.674Z,3.42
2023-01-08T05:37:51.068Z,3.47
2023-01-08T05:40:18.398Z,3.75
2023-01-08T05:42:45.712Z,3.30
2023-01-08T05:45:13.207Z,3.33
2023-01-08T05:47:40.632Z,3.40
2023-01-08T05:50:08.105Z,3.67
2023-01-08T05:52:36.023Z,3.47
2023-01-08T05:55:03.417Z,4.57
2023-01-08T05:57:30.869Z,4.15
2023-01-08T05:59:58.156Z,4.25
2023-01-08T06:02:25.631Z,4.65
2023-01-08T06:04:53.010Z,4.55
2023-01-08T06:07:20.320Z,4.60
2023-01-08T06:09:47.730Z,4.72
2023-01-08T06:12:15.085Z,5.78
2023-01-08T06:14:42.552Z,4.38
2023-01-08T06:17:10.200Z,3.67
2023-01-08T06:19:39.471Z,3.70
2023-01-08T06:22:06.926Z,4.07
2023-01-08T06:24:34.284Z,4.10
2023-01-08T06:27:01.691Z,4.25
2023-01-08T06:29:29.172Z,4.55
2023-01-08T06:31:56.991Z,4.60
2023-01-08T06:34:24.302Z,4.00
2023-01-08T06:36:51.691Z,5.30
2023-01-08T06:39:19.143Z,5.57
2023-01-08T06:41:46.579Z,4.45
2023-01-08T06:44:14.034Z,4.60
2023-01-08T06:46:41.774Z,4.50
2023-01-08T06:49:09.873Z,4.72
2023-01-08T06:51:37.559Z,4.88
2023-01-08T06:54:04.985Z,4.43
2023-01-08T06:56:37.744Z,4.15
2023-01-08T06:59:12.910Z,4.70
2023-01-08T07:01:40.687Z,3.97
2023-01-08T07:04:08.107Z,3.72
2023-01-08T07:06:35.583Z,4.10
2023-01-08T07:09:03.008Z,3.65
2023-01-08T07:11:30.396Z,3.92
2023-01-08T07:13:57.814Z,3.78
2023-01-08T07:16:25.946Z,3.67
2023-01-08T07:18:53.377Z,3.50
2023-01-08T07:21:22.777Z,3.30
2023-01-08T07:23:50.758Z,3.50
2023-01-08T07:26:18.658Z,2.95
2023-01-08T07:28:46.276Z,3.25
2023-01-08T07:31:13.845Z,3.47
2023-01-08T07:33:41.419Z,3.33
2023-01-08T07:36:09.120Z,3.75
2023-01-08T07:38:36.519Z,3.95
2023-01-08T07:41:04.787Z,3.30
2023-01-08T07:43:35.670Z,3.40
2023-01-08T07:46:04.142Z,3.08
2023-01-08T07:48:32.402Z,3.22
2023-01-08T07:51:03.593Z,3.25
2023-01-08T07:53:31.057Z,3.17
2023-01-08T07:56:02.307Z,3.58
2023-01-08T07:58:29.816Z,3.10
2023-01-08T08:00:59.227Z,3.50
2023-01-08T08:03:27.008Z,3.85
2023-01-08T08:05:54.431Z,3.85
2023-01-08T08:08:22.420Z,4.10
2023-01-08T08:10:49.926Z,4.47
2023-01-08T08:13:17.319Z,4.32
2023-01-08T08:15:44.866Z,5.43
2023-01-08T08:18:12.504Z,5.32
2023-01-08T08:20:40.266Z,4.85
2023-01-08T08:23:09.258Z,4.20
2023-01-08T08:25:37.282Z,5.05
2023-01-08T08:28:04.861Z,5.70
2023-01-08T08:30:33.154Z,4.25
2023-01-08T08:33:01.674Z,5.20
2023-01-08T08:35:29.448Z,6.07
2023-01-08T08:37:57.492Z,4.03
2023-01-08T08:40:25.426Z,4.20
2023-01-08T08:43:02.840Z,5.22
2023-01-08T08:45:30.693Z,4.40
2023-01-08T08:47:58.051Z,4.63
2023-01-08T08:50:25.605Z,4.10
2023-01-08T08:52:53.279Z,3.60
2023-01-08T08:55:20.730Z,4.03
2023-01-08T08:57:48.707Z,4.28
2023-01-08T09:00:16.765Z,4.45
2023-01-08T09:02:44.271Z,3.95
2023-01-08T09:05:14.799Z,4.95
2023-01-08T09:07:42.117Z,4.50
2023-01-08T09:10:09.772Z,4.05
2023-01-08T09:12:37.186Z,3.72
2023-01-08T09:15:04.791Z,3.50
2023-01-08T09:17:32.183Z,5.10
2023-01-08T09:19:59.562Z,5.30
2023-01-08T09:22:26.982Z,4.50
2023-01-08T09:24:55.622Z,4.75
2023-01-08T09:27:26.009Z,4.32
2023-01-08T09:29:53.507Z,4.30
2023-01-08T09:32:21.020Z,5.60
2023-01-08T09:34:48.378Z,5.07
2023-01-08T09:37:15.837Z,6.43
2023-01-08T09:39:47.977Z,5.93
2023-01-08T09:42:16.417Z,5.43
2023-01-08T09:44:46.057Z,6.47
2023-01-08T09:47:25.745Z,6.03
2023-01-08T09:49:55.717Z,5.50
2023-01-08T09:52:25.693Z,5.70
2023-01-08T09:54:53.404Z,5.55
2023-01-08T09:57:22.681Z,5.93
2023-01-08T09:59:53.540Z,5.70
2023-01-08T10:02:22.454Z,4.90
2023-01-08T10:04:54.656Z,6.57
2023-01-08T10:07:23.372Z,5.07
2023-01-08T10:09:51.323Z,5.47
2023-01-08T10:12:32.135Z,5.03
2023-01-08T10:15:01.580Z,5.38
2023-01-08T10:17:31.786Z,5.13
2023-01-08T10:19:59.177Z,5.63
2023-01-08T10:22:29.499Z,4.70
2023-01-08T10:25:04.816Z,5.35
2023-01-08T10:30:06.230Z,5.18
2023-01-08T10:32:35.713Z,5.10
2023-01-08T10:35:09.195Z,5.18
2023-01-08T10:37:46.823Z,5.45
2023-01-08T10:40:36.043Z,5.40
2023-01-08T10:43:08.086Z,3.60
2023-01-08T10:45:35.740Z,4.03
2023-01-08T10:48:05.266Z,4.35
2023-01-08T10:50:38.659Z,5.60
2023-01-08T10:53:07.120Z,3.65
2023-01-08T10:55:39.764Z,3.45
2023-01-08T10:58:10.188Z,2.95
2023-01-08T11:00:38.194Z,2.70
2023-01-08T11:03:08.049Z,2.80
2023-01-08T11:05:43.271Z,2.45
2023-01-08T11:08:22.929Z,2.88
2023-01-08T11:11:00.826Z,2.85
2023-01-08T11:13:28.433Z,2.65
2023-01-08T11:16:03.624Z,3.05
2023-01-08T11:18:31.038Z,3.22
2023-01-08T11:21:18.843Z,2.60
2023-01-08T11:23:46.263Z,2.50
2023-01-08T11:26:18.879Z,2.30
2023-01-08T11:28:57.105Z,3.03
2023-01-08T11:31:29.873Z,2.35
2023-01-08T11:33:59.972Z,2.47
2023-01-08T11:36:33.629Z,2.60
2023-01-08T11:39:01.729Z,2.08
2023-01-08T11:41:49.443Z,1.98
2023-01-08T11:44:36.014Z,2.03
2023-01-08T11:47:09.486Z,2.88
2023-01-08T11:49:36.793Z,2.03
2023-01-08T11:52:10.266Z,1.65
2023-01-08T11:54:47.100Z,4.68
2023-01-08T11:57:14.445Z,3.28
2023-01-08T11:59:44.775Z,2.80
2023-01-08T12:02:18.429Z,2.55
2023-01-08T12:04:52.110Z,3.50
2023-01-08T12:07:22.577Z,2.30
2023-01-08T12:10:06.110Z,2.20
2023-01-08T12:12:33.517Z,2.13
2023-01-08T12:15:16.231Z,2.47
2023-01-08T12:18:02.863Z,3.75
2023-01-08T12:20:30.237Z,1.55
2023-01-08T12:22:57.533Z,1.80
2023-01-08T12:25:34.347Z,1.90
2023-01-08T12:28:05.064Z,2.30
2023-01-08T12:30:32.438Z,1.75
2023-01-08T12:33:03.062Z,1.52
2023-01-08T12:35:37.391Z,1.60
2023-01-08T12:38:11.089Z,1.70
2023-01-08T12:41:08.116Z,2.33
2023-01-08T12:43:46.637Z,2.35
2023-01-08T12:46:17.194Z,2.20
2023-01-08T12:48:50.230Z,2.10
2023-01-08T12:51:37.953Z,2.10
2023-01-08T12:54:05.337Z,2.53
2023-01-08T12:56:54.570Z,2.15
2023-01-08T12:59:22.192Z,2.10
2023-01-08T13:01:49.723Z,1.98
2023-01-08T13:04:17.501Z,2.83
2023-01-08T13:06:52.793Z,2.22
2023-01-08T13:11:52.306Z,1.90
2023-01-08T13:14:19.741Z,2.17
2023-01-08T13:16:47.694Z,1.75
2023-01-08T13:19:26.062Z,2.15
2023-01-08T13:22:00.939Z,1.85
2023-01-08T13:24:37.165Z,1.55
2023-01-08T13:27:34.054Z,1.38
2023-01-08T13:30:03.253Z,1.45
2023-01-08T13:32:47.884Z,1.25
2023-01-08T13:35:15.299Z,1.55
2023-01-08T13:38:06.701Z,1.90
2023-01-08T13:40:49.771Z,1.50
2023-01-08T13:43:26.074Z,1.40
2023-01-08T13:46:02.848Z,1.33
2023-01-08T13:48:40.412Z,1.40
2023-01-08T13:51:20.636Z,1.92
2023-01-08T13:53:47.959Z,1.90
2023-01-08T13:56:15.824Z,1.27
2023-01-08T13:58:46.440Z,1.70
2023-01-08T14:01:15.071Z,1.88
2023-01-08T14:03:46.724Z,2.97
2023-01-08T14:06:17.278Z,4.32
2023-01-08T14:08:53.849Z,2.33
2023-01-08T14:17:23.860Z,1.55
2023-01-08T14:19:51.483Z,2.00
2023-01-08T14:22:27.303Z,1.40
2023-01-08T14:24:56.531Z,1.40
2023-01-08T14:27:28.820Z,1.88
2023-01-08T14:29:56.549Z,1.10
2023-01-08T14:32:25.050Z,2.20
2023-01-08T14:34:53.694Z,2.13
2023-01-08T14:37:21.541Z,1.50
2023-01-08T14:39:53.597Z,1.50
2023-01-08T14:42:40.684Z,1.70
2023-01-08T14:45:11.032Z,4.55
2023-01-08T14:47:41.402Z,14.25
2023-01-08T14:50:17.168Z,6.47
2023-01-08T14:52:44.648Z,2.92
2023-01-08T14:55:15.618Z,1.70
2023-01-08T14:57:50.458Z,1.98
2023-01-08T15:00:19.823Z,1.98
2023-01-08T15:02:48.361Z,1.65
2023-01-08T15:05:18.223Z,0.90
2023-01-08T15:07:57.602Z,0.95
2023-01-08T15:10:37.137Z,1.00
2023-01-08T15:13:07.698Z,1.02
2023-01-08T15:15:36.205Z,0.73
2023-01-08T15:18:06.744Z,1.52
2023-01-08T15:20:35.612Z,3.03
2023-01-08T15:23:03.032Z,3.15
2023-01-08T15:25:31.086Z,1.30
2023-01-08T15:28:02.288Z,1.20
2023-01-08T15:30:34.194Z,1.92
2023-01-08T15:33:30.620Z,1.90
2023-01-08T15:35:58.315Z,1.77
2023-01-08T15:38:25.880Z,1.63
2023-01-08T15:40:53.759Z,2.03
2023-01-08T15:43:21.827Z,1.70
2023-01-08T15:45:51.853Z,2.50
2023-01-08T15:48:19.331Z,2.45
2023-01-08T15:50:47.135Z,1.45
2023-01-08T15:53:17.535Z,1.83
2023-01-08T15:55:49.889Z,2.08
2023-01-08T15:58:17.767Z,2.67
2023-01-08T16:00:46.362Z,1.80
2023-01-08T16:03:14.707Z,5.50
2023-01-08T16:05:43.683Z,2.28
2023-01-08T16:08:11.668Z,2.33
2023-01-08T16:10:42.461Z,1.70
2023-01-08T16:13:12.202Z,1.85
2023-01-08T16:15:40.570Z,1.80
2023-01-08T16:18:07.951Z,1.85
2023-01-08T16:20:35.434Z,2.03
2023-01-08T16:23:02.782Z,2.33
2023-01-08T16:25:31.756Z,3.10
2023-01-08T16:27:59.304Z,2.38
2023-01-08T16:30:28.016Z,3.78
2023-01-08T16:32:55.388Z,1.30
2023-01-08T16:35:22.825Z,2.63
2023-01-08T16:37:50.835Z,2.45
2023-01-08T16:40:19.220Z,1.70
2023-01-08T16:42:46.666Z,1.40
2023-01-08T16:45:14.130Z,2.28
2023-01-08T16:47:41.569Z,2.83
2023-01-08T16:50:09.836Z,1.75
2023-01-08T16:52:38.416Z,2.60
2023-01-08T16:55:06.522Z,3.10
2023-01-08T16:57:33.985Z,2.20
2023-01-08T17:00:01.551Z,2.67
2023-01-08T17:02:29.064Z,2.95
2023-01-08T17:04:56.467Z,4.13
2023-01-08T17:07:23.801Z,5.47
2023-01-08T17:09:54.176Z,4.22
2023-01-08T17:12:22.672Z,6.70
2023-01-08T17:14:51.005Z,7.80
2023-01-08T17:17:18.777Z,2.50
2023-01-08T17:19:46.341Z,3.55
2023-01-08T17:22:13.952Z,5.30
2023-01-08T17:24:41.478Z,3.60
2023-01-08T17:27:08.872Z,2.13
2023-01-08T17:29:36.236Z,1.60
2023-01-08T17:32:03.794Z,1.70
2023-01-08T17:34:31.134Z,1.88
2023-01-08T17:36:58.497Z,2.40
2023-01-08T17:39:25.997Z,3.78
2023-01-08T17:42:11.901Z,2.85
2023-01-08T17:44:39.274Z,5.68
2023-01-08T17:47:06.760Z,6.65
2023-01-08T17:49:34.175Z,8.73
2023-01-08T17:52:01.639Z,3.42
2023-01-08T17:54:29.304Z,8.73
2023-01-08T17:56:56.879Z,17.38
2023-01-08T17:59:24.410Z,12.13
2023-01-08T18:01:53.683Z,5.00
2023-01-08T18:04:21.486Z,2.70
2023-01-08T18:06:49.033Z,2.03
2023-01-08T18:09:16.615Z,3.70
2023-01-08T18:11:44.349Z,4.18
2023-01-08T18:14:12.930Z,4.30
2023-01-08T18:16:40.559Z,3.35
2023-01-08T18:19:07.972Z,3.47
2023-01-08T18:21:35.560Z,3.83
2023-01-08T18:24:02.903Z,3.40
2023-01-08T18:26:30.292Z,3.92
2023-01-08T18:28:57.869Z,3.50
2023-01-08T18:31:25.617Z,3.85
2023-01-08T18:33:53.259Z,3.40
2023-01-08T18:36:20.883Z,2.10
2023-01-08T18:38:48.746Z,3.90
2023-01-08T18:41:35.924Z,4.10
2023-01-08T18:44:04.134Z,2.53
2023-01-08T18:46:31.493Z,3.13
2023-01-08T18:48:59.031Z,4.38
2023-01-08T18:51:26.342Z,3.10
2023-01-08T18:53:54.527Z,2.80
2023-01-08T18:56:27.736Z,3.92
2023-01-08T18:58:55.055Z,2.95
2023-01-08T19:01:23.119Z,3.20
2023-01-08T19:03:50.619Z,2.05
2023-01-08T19:06:18.512Z,2.05
2023-01-08T19:08:46.408Z,2.78
2023-01-08T19:11:14.480Z,3.22
2023-01-08T19:13:42.494Z,2.97
2023-01-08T19:16:11.826Z,5.40
2023-01-08T19:18:39.258Z,16.25
2023-01-08T19:21:07.492Z,11.68
2023-01-08T19:23:35.759Z,11.27
2023-01-08T19:26:06.818Z,12.32
2023-01-08T19:28:34.229Z,7.35
2023-01-08T19:31:12.253Z,7.35
2023-01-08T19:33:39.771Z,4.40
2023-01-08T19:36:11.424Z,2.83
2023-01-08T19:38:39.088Z,4.00
2023-01-08T19:41:26.763Z,4.20
2023-01-08T19:43:57.071Z,3.75
2023-01-08T19:46:24.624Z,7.60
2023-01-08T19:48:52.188Z,5.55
2023-01-08T19:51:19.681Z,5.03
2023-01-08T19:53:47.203Z,5.10
2023-01-08T19:56:15.234Z,3.67
2023-01-08T19:58:42.911Z,4.10
2023-01-08T20:01:11.893Z,3.40
2023-01-08T20:03:40.080Z,3.00
2023-01-08T20:06:08.661Z,2.20
2023-01-08T20:08:36.069Z,2.58
2023-01-08T20:11:22.791Z,2.33
2023-01-08T20:13:51.584Z,2.22
2023-01-08T20:16:19.958Z,2.25
2023-01-08T20:18:47.601Z,2.35
2023-01-08T20:21:17.139Z,2.90
2023-01-08T20:23:45.378Z,3.20
2023-01-08T20:26:14.894Z,2.80
2023-01-08T20:28:43.145Z,3.00
2023-01-08T20:31:12.572Z,2.85
2023-01-08T20:33:40.518Z,2.83
2023-01-08T20:36:08.871Z,2.92
2023-01-08T20:38:36.445Z,2.92
2023-01-08T20:41:05.128Z,2.83
2023-01-08T20:43:32.476Z,3.97
2023-01-08T20:46:00.294Z,4.15
2023-01-08T20:48:30.064Z,3.70
2023-01-08T20:51:00.925Z,4.45
2023-01-08T20:53:31.640Z,4.50
2023-01-08T20:56:02.748Z,4.68
2023-01-08T20:58:30.133Z,3.78
2023-01-08T21:01:04.245Z,3.80
2023-01-08T21:03:31.675Z,3.13
2023-01-08T21:05:59.101Z,3.50
2023-01-08T21:08:26.737Z,3.17
2023-01-08T21:11:01.187Z,3.58
2023-01-08T21:13:28.925Z,3.10
2023-01-08T21:16:01.037Z,3.70
2023-01-08T21:18:28.770Z,2.50
2023-01-08T21:21:00.684Z,2.53
2023-01-08T21:23:28.621Z,2.60
2023-01-08T21:25:58.075Z,2.78
2023-01-08T21:28:26.535Z,2.67
2023-01-08T21:30:54.221Z,1.83
2023-01-08T21:33:22.095Z,2.00
2023-01-08T21:35:49.488Z,2.20
2023-01-08T21:38:16.983Z,2.22
2023-01-08T21:40:44.349Z,2.33
2023-01-08T21:43:31.853Z,2.22
2023-01-08T21:46:01.993Z,1.88
2023-01-08T21:48:30.161Z,2.00
2023-01-08T21:50:57.588Z,2.40
2023-01-08T21:53:36.312Z,2.20
2023-01-08T21:56:05.295Z,1.90
2023-01-08T21:58:32.923Z,2.05
2023-01-08T22:01:00.304Z,2.17
2023-01-08T22:03:27.837Z,2.90
2023-01-08T22:06:02.454Z,5.00
2023-01-08T22:08:31.485Z,4.00
2023-01-08T22:11:00.489Z,3.40
2023-01-08T22:13:31.164Z,3.22
2023-01-08T22:16:02.775Z,3.40
2023-01-08T22:18:32.484Z,3.05
2023-01-08T22:21:00.663Z,3.13
2023-01-08T22:23:28.330Z,2.95
2023-01-08T22:25:56.180Z,3.00
2023-01-08T22:28:23.895Z,4.10
2023-01-08T22:30:51.270Z,4.43
2023-01-08T22:33:18.940Z,4.05
2023-01-08T22:35:46.580Z,4.40
2023-01-08T22:38:13.826Z,5.38
2023-01-08T22:40:41.174Z,4.90
2023-01-08T22:43:08.618Z,5.38
2023-01-08T22:45:35.946Z,5.65
2023-01-08T22:48:04.982Z,6.63
2023-01-08T22:50:32.244Z,6.07
2023-01-08T22:52:59.503Z,7.22
2023-01-08T22:55:26.808Z,6.13
2023-01-08T22:57:54.114Z,5.82
2023-01-08T23:00:21.530Z,6.10
2023-01-08T23:02:48.786Z,5.78
2023-01-08T23:05:16.061Z,5.50
2023-01-08T23:07:43.304Z,6.05
2023-01-08T23:12:45.757Z,6.28
2023-01-08T23:15:13.051Z,6.43
2023-01-08T23:17:51.600Z,6.53
2023-01-08T23:20:19.841Z,6.53
2023-01-08T23:22:48.196Z,5.97
2023-01-08T23:25:16.056Z,6.28
2023-01-08T23:27:44.946Z,6.55
2023-01-08T23:30:13.583Z,6.43
2023-01-08T23:32:40.840Z,5.95
2023-01-08T23:35:08.205Z,5.43
2023-01-08T23:37:35.507Z,5.20
2023-01-08T23:40:02.718Z,4.88
2023-01-08T23:42:30.142Z,3.97
2023-01-08T23:44:57.442Z,3.63
2023-01-08T23:47:24.759Z,3.08
2023-01-08T23:49:51.988Z,3.70
2023-01-08T23:54:55.464Z,3.75
2023-01-08T23:57:22.696Z,3.47
2023-01-08T23:59:50.079Z,4.22
